createdAt,value
2022-12-18T00:00:34.217Z,101093.77
2022-12-18T00:01:36.061Z,101092.91
2022-12-18T00:02:37.970Z,101096.38
2022-12-18T00:03:40.565Z,101095.53
2022-12-18T00:04:42.647Z,101107.70
2022-12-18T00:05:44.427Z,101111.17
2022-12-18T00:06:46.443Z,101112.04
2022-12-18T00:07:50.120Z,101118.98
2022-12-18T00:08:51.969Z,101113.77
2022-12-18T00:09:53.750Z,101121.59
2022-12-18T00:10:55.524Z,101118.98
2022-12-18T00:11:59.126Z,101121.56
2022-12-18T00:13:03.814Z,101120.72
2022-12-18T00:14:04.557Z,101127.66
2022-12-18T00:15:06.380Z,101132.02
2022-12-18T00:16:09.147Z,101132.05
2022-12-18T00:17:10.985Z,101134.67
2022-12-18T00:18:16.117Z,101126.02
2022-12-18T00:19:16.446Z,101124.28
2022-12-18T00:20:18.258Z,101126.06
2022-12-18T00:21:20.058Z,101113.05
2022-12-18T00:22:21.879Z,101121.73
2022-12-18T00:23:23.696Z,101113.91
2022-12-18T00:24:25.502Z,101112.23
2022-12-18T00:25:27.588Z,101118.30
2022-12-18T00:26:29.479Z,101115.70
2022-12-18T00:27:31.212Z,101113.95
2022-12-18T00:28:33.064Z,101108.75
2022-12-18T00:29:34.880Z,101099.23
2022-12-18T00:30:36.707Z,101102.70
2022-12-18T00:31:38.839Z,101101.86
2022-12-18T00:32:40.635Z,101106.17
2022-12-18T00:33:42.662Z,101115.70
2022-12-18T00:34:44.573Z,101112.23
2022-12-18T00:35:46.387Z,101125.25
2022-12-18T00:36:48.268Z,101116.52
2022-12-18T00:37:49.943Z,101127.83
2022-12-18T00:38:51.776Z,101125.20
2022-12-18T00:39:53.582Z,101121.70
2022-12-18T00:40:56.006Z,101121.70
2022-12-18T00:41:57.809Z,101130.41
2022-12-18T00:42:59.617Z,101129.52
2022-12-18T00:44:01.452Z,101124.30
2022-12-18T00:45:07.628Z,101126.05
2022-12-18T00:46:07.242Z,101124.30
2022-12-18T00:47:09.398Z,101127.78
2022-12-18T00:48:11.198Z,101127.78
2022-12-18T00:49:13.033Z,101136.46
2022-12-18T00:50:15.153Z,101132.99
2022-12-18T00:51:16.947Z,101133.86
2022-12-18T00:52:18.763Z,101135.62
2022-12-18T00:53:20.577Z,101140.80
2022-12-18T00:54:22.421Z,101135.59
2022-12-18T00:55:24.245Z,101137.33
2022-12-18T00:56:26.043Z,101142.55
2022-12-18T00:57:28.048Z,101134.72
2022-12-18T00:58:29.840Z,101135.59
2022-12-18T00:59:31.684Z,101141.64
2022-12-18T01:00:33.752Z,101138.20
2022-12-18T01:01:35.738Z,101135.57
2022-12-18T01:02:37.826Z,101142.53
2022-12-18T01:03:40.074Z,101135.62
2022-12-18T01:04:42.864Z,101147.77
2022-12-18T01:05:44.668Z,101144.30
2022-12-18T01:06:46.500Z,101143.43
2022-12-18T01:07:48.293Z,101152.13
2022-12-18T01:08:50.094Z,101154.71
2022-12-18T01:09:52.138Z,101159.91
2022-12-18T01:10:54.140Z,101162.52
2022-12-18T01:11:55.940Z,101160.78
2022-12-18T01:12:57.742Z,101162.55
2022-12-18T01:13:59.541Z,101165.17
2022-12-18T01:15:01.387Z,101159.98
2022-12-18T01:16:03.239Z,101163.48
2022-12-18T01:17:05.108Z,101154.80
2022-12-18T01:18:06.937Z,101163.48
2022-12-18T01:19:08.741Z,101161.75
2022-12-18T01:20:11.400Z,101158.30
2022-12-18T01:21:13.209Z,101155.69
2022-12-18T01:22:15.003Z,101161.80
2022-12-18T01:23:16.824Z,101155.72
2022-12-18T01:24:18.618Z,101160.92
2022-12-18T01:25:20.463Z,101160.92
2022-12-18T01:26:22.377Z,101161.82
2022-12-18T01:27:24.169Z,101157.48
2022-12-18T01:28:25.974Z,101164.42
2022-12-18T01:29:27.787Z,101165.29
2022-12-18T01:30:29.632Z,101170.50
2022-12-18T01:31:31.537Z,101170.50
2022-12-18T01:32:33.344Z,101167.05
2022-12-18T01:33:35.427Z,101172.27
2022-12-18T01:34:37.271Z,101163.58
2022-12-18T01:35:39.223Z,101162.70
2022-12-18T01:36:41.136Z,101161.82
2022-12-18T01:37:42.940Z,101164.41
2022-12-18T01:38:44.740Z,101159.20
2022-12-18T01:39:46.541Z,101158.30
2022-12-18T01:40:48.595Z,101160.85
2022-12-18T01:41:50.384Z,101166.02
2022-12-18T01:42:52.794Z,101167.73
2022-12-18T01:43:54.602Z,101167.70
2022-12-18T01:44:56.389Z,101174.67
2022-12-18T01:45:58.297Z,101169.47
2022-12-18T01:47:00.244Z,101177.28
2022-12-18T01:48:02.049Z,101168.59
2022-12-18T01:49:03.951Z,101171.20
2022-12-18T01:50:06.082Z,101175.52
2022-12-18T01:51:07.921Z,101173.78
2022-12-18T01:52:09.720Z,101175.52
2022-12-18T01:53:11.526Z,101176.36
2022-12-18T01:54:13.403Z,101168.57
2022-12-18T01:55:15.228Z,101182.48
2022-12-18T01:56:17.265Z,101174.67
2022-12-18T01:57:19.083Z,101180.75
2022-12-18T01:58:20.878Z,101176.41
2022-12-18T01:59:22.683Z,101174.67
2022-12-18T02:00:24.485Z,101173.80
2022-12-18T02:01:26.526Z,101177.30
2022-12-18T02:02:28.568Z,101179.88
2022-12-18T02:03:30.446Z,101179.88
2022-12-18T02:04:32.350Z,101181.59
2022-12-18T02:05:34.168Z,101192.00
2022-12-18T02:06:36.107Z,101188.56
2022-12-18T02:07:37.909Z,101193.74
2022-12-18T02:08:39.700Z,101179.84
2022-12-18T02:09:43.774Z,101191.98
2022-12-18T02:10:45.820Z,101196.34
2022-12-18T02:11:47.662Z,101188.52
2022-12-18T02:12:49.495Z,101192.87
2022-12-18T02:13:51.810Z,101195.44
2022-12-18T02:14:53.629Z,101198.09
2022-12-18T02:15:55.433Z,101197.19
2022-12-18T02:16:57.318Z,101201.53
2022-12-18T02:17:59.065Z,101205.89
2022-12-18T02:19:00.882Z,101204.13
2022-12-18T02:20:02.710Z,101204.97
2022-12-18T02:21:04.511Z,101214.52
2022-12-18T02:22:06.364Z,101206.69
2022-12-18T02:23:08.153Z,101215.34
2022-12-18T02:24:09.971Z,101213.52
2022-12-18T02:25:11.768Z,101216.05
2022-12-18T02:26:13.865Z,101213.31
2022-12-18T02:27:15.717Z,101215.86
2022-12-18T02:28:17.512Z,101224.45
2022-12-18T02:29:19.606Z,101220.88
2022-12-18T02:30:21.407Z,101226.05
2022-12-18T02:31:23.215Z,101231.20
2022-12-18T02:32:25.066Z,101229.41
2022-12-18T02:33:26.864Z,101231.98
2022-12-18T02:34:28.667Z,101236.30
2022-12-18T02:35:30.712Z,101236.27
2022-12-18T02:36:32.524Z,101225.83
2022-12-18T02:37:34.368Z,101237.02
2022-12-18T02:38:36.159Z,101230.05
2022-12-18T02:39:37.954Z,101229.16
2022-12-18T02:40:40.063Z,101233.46
2022-12-18T02:41:41.868Z,101235.14
2022-12-18T02:42:43.699Z,101237.65
2022-12-18T02:43:45.518Z,101242.82
2022-12-18T02:44:47.322Z,101240.13
2022-12-18T02:45:49.147Z,101241.80
2022-12-18T02:46:51.222Z,101241.77
2022-12-18T02:47:53.075Z,101245.20
2022-12-18T02:48:54.882Z,101251.24
2022-12-18T02:49:56.695Z,101250.37
2022-12-18T02:50:58.708Z,101252.11
2022-12-18T02:52:00.503Z,101262.45
2022-12-18T02:53:02.353Z,101258.92
2022-12-18T02:54:04.155Z,101260.63
2022-12-18T02:55:05.953Z,101257.92
2022-12-18T02:56:07.961Z,101273.36
2022-12-18T02:57:09.755Z,101280.06
2022-12-18T02:58:11.594Z,101277.36
2022-12-18T02:59:13.397Z,101278.13
2022-12-18T03:00:15.214Z,101282.36
2022-12-18T03:01:17.132Z,101281.34
2022-12-18T03:02:19.093Z,101288.14
2022-12-18T03:03:21.154Z,101296.69
2022-12-18T03:04:22.993Z,101298.10
2022-12-18T03:05:24.793Z,101298.10
2022-12-18T03:06:26.660Z,101303.22
2022-12-18T03:07:28.470Z,101304.09
2022-12-18T03:08:30.531Z,101307.59
2022-12-18T03:09:32.321Z,101306.72
2022-12-18T03:10:34.329Z,101313.69
2022-12-18T03:11:36.130Z,101314.55
2022-12-18T03:12:37.910Z,101323.20
2022-12-18T03:13:40.183Z,101318.80
2022-12-18T03:14:42.164Z,101325.69
2022-12-18T03:15:43.946Z,101328.25
2022-12-18T03:16:46.016Z,101330.81
2022-12-18T03:17:47.772Z,101338.56
2022-12-18T03:18:49.629Z,101337.63
2022-12-18T03:19:51.433Z,101337.55
2022-12-18T03:20:53.250Z,101346.13
2022-12-18T03:21:55.191Z,101343.38
2022-12-18T03:22:56.995Z,101344.00
2022-12-18T03:23:58.838Z,101342.98
2022-12-18T03:25:00.655Z,101346.28
2022-12-18T03:26:07.267Z,101353.12
2022-12-18T03:27:06.051Z,101351.27
2022-12-18T03:28:07.740Z,101352.17
2022-12-18T03:29:09.584Z,101365.06
2022-12-18T03:30:11.708Z,101370.09
2022-12-18T03:31:14.558Z,101377.80
2022-12-18T03:32:16.362Z,101376.98
2022-12-18T03:33:18.140Z,101381.25
2022-12-18T03:34:20.000Z,101389.04
2022-12-18T03:35:21.830Z,101389.00
2022-12-18T03:36:23.578Z,101397.61
2022-12-18T03:37:25.910Z,101390.60
2022-12-18T03:38:27.728Z,101396.66
2022-12-18T03:39:29.546Z,101400.03
2022-12-18T03:40:31.466Z,101397.39
2022-12-18T03:41:33.268Z,101394.66
2022-12-18T03:42:35.105Z,101400.63
2022-12-18T03:43:37.836Z,101403.18
2022-12-18T03:44:39.875Z,101409.19
2022-12-18T03:45:41.727Z,101401.41
2022-12-18T03:46:43.576Z,101397.08
2022-12-18T03:47:45.371Z,101409.11
2022-12-18T03:48:47.070Z,101405.64
2022-12-18T03:49:48.932Z,101410.01
2022-12-18T03:50:50.846Z,101414.34
2022-12-18T03:51:52.648Z,101409.15
2022-12-18T03:52:54.518Z,101405.64
2022-12-18T03:53:56.328Z,101417.79
2022-12-18T03:54:58.188Z,101421.16
2022-12-18T03:55:59.980Z,101425.44
2022-12-18T03:57:01.788Z,101429.72
2022-12-18T03:58:03.556Z,101423.62
2022-12-18T03:59:05.256Z,101426.22
2022-12-18T04:00:07.602Z,101424.44
2022-12-18T04:01:09.404Z,101431.31
2022-12-18T04:02:11.312Z,101438.08
2022-12-18T04:03:13.318Z,101428.30
2022-12-18T04:04:15.209Z,101433.34
2022-12-18T04:05:17.076Z,101434.94
2022-12-18T04:06:19.172Z,101442.63
2022-12-18T04:07:20.968Z,101440.03
2022-12-18T04:08:22.822Z,101439.16
2022-12-18T04:09:24.525Z,101446.16
2022-12-18T04:10:26.456Z,101437.58
2022-12-18T04:11:28.259Z,101447.13
2022-12-18T04:12:30.055Z,101452.31
2022-12-18T04:13:31.842Z,101447.95
2022-12-18T04:14:33.661Z,101453.99
2022-12-18T04:15:35.593Z,101452.22
2022-12-18T04:16:37.616Z,101445.31
2022-12-18T04:17:39.436Z,101450.50
2022-12-18T04:18:41.227Z,101450.50
2022-12-18T04:19:43.022Z,101445.31
2022-12-18T04:20:44.873Z,101456.53
2022-12-18T04:21:46.693Z,101452.17
2022-12-18T04:22:48.475Z,101453.04
2022-12-18T04:23:51.122Z,101449.58
2022-12-18T04:24:52.913Z,101452.17
2022-12-18T04:25:54.758Z,101459.91
2022-12-18T04:26:56.758Z,101464.22
2022-12-18T04:27:58.546Z,101459.03
2022-12-18T04:29:00.342Z,101467.53
2022-12-18T04:30:02.151Z,101467.34
2022-12-18T04:31:04.074Z,101474.91
2022-12-18T04:32:05.826Z,101476.45
2022-12-18T04:33:07.626Z,101483.31
2022-12-18T04:34:09.424Z,101475.48
2022-12-18T04:35:11.217Z,101485.85
2022-12-18T04:36:13.581Z,101484.18
2022-12-18T04:37:15.368Z,101486.77
2022-12-18T04:38:17.161Z,101485.85
2022-12-18T04:39:19.065Z,101490.11
2022-12-18T04:40:20.983Z,101482.20
2022-12-18T04:41:22.824Z,101486.41
2022-12-18T04:42:24.638Z,101487.19
2022-12-18T04:43:26.456Z,101488.70
2022-12-18T04:44:28.242Z,101485.19
2022-12-18T04:45:30.033Z,101491.19
2022-12-18T04:46:32.835Z,101498.03
2022-12-18T04:47:34.596Z,101498.80
2022-12-18T04:48:36.378Z,101502.97
2022-12-18T04:49:38.162Z,101496.77
2022-12-18T04:50:40.178Z,101511.16
2022-12-18T04:51:42.730Z,101508.47
2022-12-18T04:52:44.549Z,101500.70
2022-12-18T04:53:46.353Z,101513.70
2022-12-18T04:54:48.192Z,101513.76
2022-12-18T04:55:49.974Z,101516.30
2022-12-18T04:56:52.010Z,101521.31
2022-12-18T04:57:54.112Z,101518.47
2022-12-18T04:58:55.903Z,101529.62
2022-12-18T04:59:57.703Z,101527.73
2022-12-18T05:00:59.926Z,101536.20
2022-12-18T05:02:01.903Z,101532.69
2022-12-18T05:03:03.835Z,101533.36
2022-12-18T05:04:05.789Z,101535.84
2022-12-18T05:05:07.729Z,101540.90
2022-12-18T05:06:10.212Z,101540.72
2022-12-18T05:07:12.173Z,101539.80
2022-12-18T05:08:13.967Z,101538.08
2022-12-18T05:09:15.749Z,101544.19
2022-12-18T05:10:17.909Z,101547.00
2022-12-18T05:11:19.616Z,101543.59
2022-12-18T05:12:21.942Z,101552.29
2022-12-18T05:13:23.760Z,101550.66
2022-12-18T05:14:25.567Z,101555.84
2022-12-18T05:15:27.375Z,101549.85
2022-12-18T05:16:30.196Z,101558.43
2022-12-18T05:17:32.152Z,101556.54
2022-12-18T05:18:33.971Z,101556.54
2022-12-18T05:19:35.782Z,101561.60
2022-12-18T05:20:37.770Z,101561.43
2022-12-18T05:21:39.583Z,101563.96
2022-12-18T05:22:41.418Z,101569.95
2022-12-18T05:23:43.696Z,101566.55
2022-12-18T05:24:45.715Z,101569.14
2022-12-18T05:25:47.618Z,101573.45
2022-12-18T05:26:49.626Z,101568.21
2022-12-18T05:27:51.456Z,101569.02
2022-12-18T05:28:53.265Z,101572.54
2022-12-18T05:29:55.061Z,101578.56
2022-12-18T05:30:57.126Z,101574.20
2022-12-18T05:31:58.867Z,101578.56
2022-12-18T05:33:00.710Z,101575.13
2022-12-18T05:34:02.520Z,101582.14
2022-12-18T05:35:04.320Z,101591.62
2022-12-18T05:36:06.429Z,101589.03
2022-12-18T05:37:08.237Z,101598.54
2022-12-18T05:38:10.068Z,101595.95
2022-12-18T05:39:11.885Z,101605.55
2022-12-18T05:40:14.084Z,101607.33
2022-12-18T05:41:15.927Z,101616.02
2022-12-18T05:42:17.734Z,101611.77
2022-12-18T05:43:21.662Z,101611.77
2022-12-18T05:44:23.186Z,101622.19
2022-12-18T05:45:24.973Z,101621.43
2022-12-18T05:46:29.897Z,101627.52
2022-12-18T05:47:31.757Z,101630.10
2022-12-18T05:48:33.610Z,101628.48
2022-12-18T05:49:35.403Z,101633.66
2022-12-18T05:50:37.210Z,101633.59
2022-12-18T05:51:39.012Z,101629.30
2022-12-18T05:52:41.123Z,101637.06
2022-12-18T05:53:43.469Z,101635.28
2022-12-18T05:54:45.485Z,101635.38
2022-12-18T05:55:47.276Z,101630.92
2022-12-18T05:56:49.190Z,101639.50
2022-12-18T05:57:50.947Z,101641.22
2022-12-18T05:58:52.811Z,101640.40
2022-12-18T05:59:54.598Z,101642.98
2022-12-18T06:00:56.623Z,101646.39
2022-12-18T06:01:58.627Z,101646.33
2022-12-18T06:03:00.536Z,101655.72
2022-12-18T06:04:02.536Z,101653.19
2022-12-18T06:05:05.117Z,101652.32
2022-12-18T06:06:07.644Z,101657.56
2022-12-18T06:07:09.459Z,101665.33
2022-12-18T06:08:11.246Z,101674.87
2022-12-18T06:09:13.090Z,101667.97
2022-12-18T06:10:15.642Z,101674.05
2022-12-18T06:11:17.984Z,101672.43
2022-12-18T06:12:19.858Z,101669.84
2022-12-18T06:13:21.660Z,101675.89
2022-12-18T06:14:23.515Z,101673.30
2022-12-18T06:15:25.347Z,101668.03
2022-12-18T06:16:27.476Z,101672.48
2022-12-18T06:17:29.392Z,101667.31
2022-12-18T06:18:31.194Z,101675.89
2022-12-18T06:19:33.032Z,101676.70
2022-12-18T06:20:35.049Z,101675.02
2022-12-18T06:21:36.863Z,101682.78
2022-12-18T06:22:38.669Z,101687.96
2022-12-18T06:23:40.860Z,101690.55
2022-12-18T06:24:42.926Z,101700.00
2022-12-18T06:25:44.711Z,101700.00
2022-12-18T06:26:46.627Z,101698.23
2022-12-18T06:27:48.516Z,101705.18
2022-12-18T06:28:50.398Z,101709.45
2022-12-18T06:29:52.323Z,101704.27
2022-12-18T06:30:54.138Z,101709.45
2022-12-18T06:31:56.018Z,101712.95
2022-12-18T06:32:57.854Z,101727.67
2022-12-18T06:33:59.650Z,101717.38
2022-12-18T06:35:01.506Z,101720.87
2022-12-18T06:36:03.523Z,101719.09
2022-12-18T06:37:05.323Z,101720.02
2022-12-18T06:38:07.113Z,101724.39
2022-12-18T06:39:08.918Z,101719.21
2022-12-18T06:40:11.793Z,101725.27
2022-12-18T06:41:13.602Z,101723.58
2022-12-18T06:42:15.397Z,101723.64
2022-12-18T06:43:17.272Z,101723.64
2022-12-18T06:44:19.082Z,101724.45
2022-12-18T06:45:21.501Z,101728.70
2022-12-18T06:46:23.504Z,101736.41
2022-12-18T06:47:25.301Z,101733.75
2022-12-18T06:48:27.100Z,101736.34
2022-12-18T06:49:30.619Z,101738.94
2022-12-18T06:50:32.974Z,101741.52
2022-12-18T06:51:34.769Z,101738.94
2022-12-18T06:52:36.573Z,101743.95
2022-12-18T06:53:38.800Z,101743.73
2022-12-18T06:54:40.889Z,101752.03
2022-12-18T06:55:42.752Z,101746.61
2022-12-18T06:56:44.748Z,101752.47
2022-12-18T06:57:46.552Z,101750.56
2022-12-18T06:58:48.438Z,101750.44
2022-12-18T06:59:50.228Z,101744.27
2022-12-18T07:00:52.310Z,101742.48
2022-12-18T07:01:54.353Z,101744.95
2022-12-18T07:02:56.459Z,101754.55
2022-12-18T07:03:58.330Z,101750.25
2022-12-18T07:05:00.120Z,101747.72
2022-12-18T07:06:01.967Z,101749.44
2022-12-18T07:07:03.763Z,101753.77
2022-12-18T07:08:05.568Z,101747.78
2022-12-18T07:09:07.523Z,101751.12
2022-12-18T07:10:10.598Z,101753.64
2022-12-18T07:11:12.451Z,101754.42
2022-12-18T07:12:14.261Z,101757.01
2022-12-18T07:13:16.057Z,101758.69
2022-12-18T07:14:17.893Z,101757.07
2022-12-18T07:15:19.695Z,101759.72
2022-12-18T07:16:25.300Z,101760.72
2022-12-18T07:17:25.172Z,101753.02
2022-12-18T07:18:26.996Z,101759.14
2022-12-18T07:19:28.810Z,101756.55
2022-12-18T07:20:31.524Z,101760.11
2022-12-18T07:21:33.376Z,101762.69
2022-12-18T07:22:35.190Z,101766.77
2022-12-18T07:23:37.196Z,101754.48
2022-12-18T07:24:39.286Z,101753.52
2022-12-18T07:25:41.154Z,101760.47
2022-12-18T07:26:43.311Z,101753.52
2022-12-18T07:27:45.134Z,101758.69
2022-12-18T07:28:47.143Z,101751.77
2022-12-18T07:29:49.094Z,101762.12
2022-12-18T07:30:51.568Z,101761.02
2022-12-18T07:31:54.614Z,101768.78
2022-12-18T07:32:56.385Z,101769.69
2022-12-18T07:33:58.184Z,101771.56
2022-12-18T07:34:59.989Z,101779.45
2022-12-18T07:36:01.797Z,101783.88
2022-12-18T07:37:03.631Z,101783.95
2022-12-18T07:38:05.423Z,101782.23
2022-12-18T07:39:07.219Z,101789.19
2022-12-18T07:40:09.530Z,101791.77
2022-12-18T07:41:11.345Z,101790.84
2022-12-18T07:42:13.296Z,101788.19
2022-12-18T07:43:15.108Z,101787.28
2022-12-18T07:44:16.916Z,101801.93
2022-12-18T07:45:18.810Z,101804.58
2022-12-18T07:46:20.732Z,101804.58
2022-12-18T07:47:22.676Z,101802.13
2022-12-18T07:48:24.477Z,101809.02
2022-12-18T07:49:26.275Z,101809.08
2022-12-18T07:50:28.564Z,101805.58
2022-12-18T07:51:30.382Z,101812.41
2022-12-18T07:52:32.236Z,101819.30
2022-12-18T07:53:34.858Z,101826.09
2022-12-18T07:54:36.681Z,101824.21
2022-12-18T07:56:05.501Z,101829.25
2022-12-18T07:56:42.235Z,101823.04
2022-12-18T07:57:54.149Z,101826.30
2022-12-18T07:58:47.738Z,101826.30
2022-12-18T07:59:50.642Z,101836.58
2022-12-18T08:00:52.615Z,101834.84
2022-12-18T08:01:54.643Z,101832.17
2022-12-18T08:02:56.600Z,101832.11
2022-12-18T08:03:58.431Z,101835.50
2022-12-18T08:05:00.224Z,101828.55
2022-12-18T08:06:02.048Z,101831.14
2022-12-18T08:07:03.844Z,101825.09
2022-12-18T08:08:05.701Z,101829.45
2022-12-18T08:09:07.510Z,101827.75
2022-12-18T08:10:10.104Z,101823.37
2022-12-18T08:11:11.915Z,101831.14
2022-12-18T08:12:13.706Z,101828.48
2022-12-18T08:13:15.545Z,101829.33
2022-12-18T08:14:17.359Z,101832.72
2022-12-18T08:15:19.412Z,101836.95
2022-12-18T08:16:22.836Z,101838.62
2022-12-18T08:17:24.677Z,101837.82
2022-12-18T08:18:26.539Z,101837.02
2022-12-18T08:19:28.361Z,101844.70
2022-12-18T08:20:30.161Z,101842.12
2022-12-18T08:21:31.952Z,101843.87
2022-12-18T08:22:33.750Z,101843.73
2022-12-18T08:23:40.699Z,101850.48
2022-12-18T08:24:39.390Z,101852.09
2022-12-18T08:25:41.175Z,101848.56
2022-12-18T08:26:51.812Z,101846.84
2022-12-18T08:27:46.604Z,101845.10
2022-12-18T08:28:48.491Z,101846.84
2022-12-18T08:29:51.224Z,101853.66
2022-12-18T08:30:53.167Z,101853.73
2022-12-18T08:31:55.154Z,101851.22
2022-12-18T08:32:56.945Z,101851.22
2022-12-18T08:33:58.826Z,101855.38
2022-12-18T08:35:00.647Z,101857.05
2022-12-18T08:36:02.426Z,101846.78
2022-12-18T08:37:04.123Z,101847.62
2022-12-18T08:38:05.927Z,101855.23
2022-12-18T08:39:07.785Z,101847.41
2022-12-18T08:40:10.084Z,101847.48
2022-12-18T08:41:11.910Z,101844.83
2022-12-18T08:42:13.710Z,101847.41
2022-12-18T08:43:15.540Z,101845.56
2022-12-18T08:44:17.402Z,101846.44
2022-12-18T08:45:19.222Z,101845.56
2022-12-18T08:46:21.251Z,101853.25
2022-12-18T08:47:23.137Z,101852.38
2022-12-18T08:48:24.943Z,101854.13
2022-12-18T08:49:26.806Z,101857.62
2022-12-18T08:50:28.710Z,101852.31
2022-12-18T08:51:30.491Z,101852.31
2022-12-18T08:52:32.714Z,101854.05
2022-12-18T08:53:35.913Z,101857.62
2022-12-18T08:54:38.097Z,101849.93
2022-12-18T08:55:39.911Z,101856.91
2022-12-18T08:56:41.702Z,101856.05
2022-12-18T08:57:43.531Z,101856.84
2022-12-18T08:58:46.162Z,101855.23
2022-12-18T08:59:48.012Z,101844.13
2022-12-18T09:00:49.788Z,101848.56
2022-12-18T09:01:52.679Z,101851.14
2022-12-18T09:02:54.722Z,101845.10
2022-12-18T09:03:56.828Z,101839.93
2022-12-18T09:04:58.696Z,101840.80
2022-12-18T09:06:00.535Z,101845.10
2022-12-18T09:07:02.382Z,101842.58
2022-12-18T09:08:04.190Z,101839.09
2022-12-18T09:09:06.020Z,101843.45
2022-12-18T09:10:08.719Z,101842.66
2022-12-18T09:11:10.629Z,101846.11
2022-12-18T09:12:12.728Z,101847.83
2022-12-18T09:13:14.562Z,101846.11
2022-12-18T09:14:16.372Z,101850.48
2022-12-18T09:15:18.220Z,101851.22
2022-12-18T09:16:20.090Z,101852.86
2022-12-18T09:17:22.003Z,101849.30
2022-12-18T09:18:23.839Z,101847.55
2022-12-18T09:19:25.644Z,101850.00
2022-12-18T09:20:27.495Z,101850.73
2022-12-18T09:21:29.300Z,101848.08
2022-12-18T09:22:31.128Z,101841.13
2022-12-18T09:23:32.889Z,101847.13
2022-12-18T09:24:34.609Z,101853.98
2022-12-18T09:25:36.537Z,101848.67
2022-12-18T09:26:38.422Z,101849.34
2022-12-18T09:27:41.056Z,101845.88
2022-12-18T09:28:43.475Z,101851.86
2022-12-18T09:29:45.584Z,101850.91
2022-12-18T09:30:48.079Z,101845.67
2022-12-18T09:31:49.851Z,101858.59
2022-12-18T09:32:52.237Z,101850.84
2022-12-18T09:33:54.072Z,101849.83
2022-12-18T09:34:55.875Z,101858.24
2022-12-18T09:35:57.710Z,101861.63
2022-12-18T09:36:59.757Z,101869.38
2022-12-18T09:38:01.569Z,101862.32
2022-12-18T09:39:07.789Z,101874.48
2022-12-18T09:40:07.602Z,101870.14
2022-12-18T09:41:09.431Z,101869.38
2022-12-18T09:42:11.254Z,101865.92
2022-12-18T09:43:13.083Z,101864.07
2022-12-18T09:44:14.978Z,101866.66
2022-12-18T09:45:16.991Z,101871.68
2022-12-18T09:46:18.974Z,101871.75
2022-12-18T09:47:20.860Z,101867.42
2022-12-18T09:48:22.668Z,101874.05
2022-12-18T09:49:24.550Z,101871.47
2022-12-18T09:50:26.529Z,101873.17
2022-12-18T09:51:28.466Z,101875.69
2022-12-18T09:52:30.256Z,101874.63
2022-12-18T09:53:32.091Z,101878.13
2022-12-18T09:54:33.874Z,101882.45
2022-12-18T09:55:37.450Z,101881.73
2022-12-18T09:56:39.832Z,101880.86
2022-12-18T09:57:41.662Z,101877.50
2022-12-18T09:58:43.712Z,101880.92
2022-12-18T09:59:45.772Z,101884.16
2022-12-18T10:00:47.807Z,101885.80
2022-12-18T10:01:49.778Z,101888.09
2022-12-18T10:02:51.857Z,101892.20
2022-12-18T10:03:53.890Z,101891.33
2022-12-18T10:04:55.824Z,101884.45
2022-12-18T10:05:57.659Z,101892.94
2022-12-18T10:07:04.355Z,101897.95
2022-12-18T10:08:03.314Z,101898.78
2022-12-18T10:09:05.152Z,101897.87
2022-12-18T10:10:07.968Z,101897.80
2022-12-18T10:11:09.779Z,101907.34
2022-12-18T10:12:11.638Z,101904.75
2022-12-18T10:13:13.476Z,101903.12
2022-12-18T10:14:15.309Z,101897.23
2022-12-18T10:15:17.115Z,101899.81
2022-12-18T10:16:19.222Z,101893.84
2022-12-18T10:17:21.028Z,101900.79
2022-12-18T10:18:22.857Z,101899.08
2022-12-18T10:19:24.685Z,101904.32
2022-12-18T10:20:26.876Z,101906.03
2022-12-18T10:21:28.688Z,101901.73
2022-12-18T10:22:30.541Z,101910.29
2022-12-18T10:23:32.348Z,101908.61
2022-12-18T10:24:34.154Z,101911.20
2022-12-18T10:25:35.969Z,101908.61
2022-12-18T10:26:37.815Z,101918.04
2022-12-18T10:27:39.660Z,101919.75
2022-12-18T10:28:43.002Z,101912.08
2022-12-18T10:29:45.268Z,101913.70
2022-12-18T10:30:47.321Z,101908.44
2022-12-18T10:31:49.075Z,101919.75
2022-12-18T10:32:50.900Z,101916.19
2022-12-18T10:33:52.714Z,101917.02
2022-12-18T10:35:00.071Z,101923.93
2022-12-18T10:35:59.373Z,101920.48
2022-12-18T10:37:01.163Z,101931.53
2022-12-18T10:38:02.994Z,101926.37
2022-12-18T10:39:05.327Z,101928.95
2022-12-18T10:40:07.967Z,101934.95
2022-12-18T10:41:09.739Z,101927.05
2022-12-18T10:42:11.555Z,101936.25
2022-12-18T10:43:13.393Z,101933.52
2022-12-18T10:44:15.247Z,101931.61
2022-12-18T10:45:17.033Z,101924.44
2022-12-18T10:46:19.350Z,101940.00
2022-12-18T10:47:21.267Z,101946.05
2022-12-18T10:48:23.141Z,101938.22
2022-12-18T10:49:24.970Z,101932.98
2022-12-18T10:50:46.865Z,101944.03
2022-12-18T10:51:31.467Z,101955.11
2022-12-18T10:52:33.653Z,101943.80
2022-12-18T10:53:35.756Z,101943.72
2022-12-18T10:54:37.552Z,101950.59
2022-12-18T10:55:39.361Z,101951.23
2022-12-18T10:56:41.504Z,101941.59
2022-12-18T10:57:45.911Z,101951.64
2022-12-18T10:58:47.775Z,101944.54
2022-12-18T10:59:49.583Z,101946.89
2022-12-18T11:00:51.431Z,101954.63
2022-12-18T11:01:53.363Z,101951.97
2022-12-18T11:02:55.470Z,101952.77
2022-12-18T11:04:02.086Z,101949.31
2022-12-18T11:05:01.804Z,101952.69
2022-12-18T11:06:03.709Z,101952.69
2022-12-18T11:07:05.512Z,101953.48
2022-12-18T11:08:07.342Z,101953.33
2022-12-18T11:09:13.863Z,101953.33
2022-12-18T11:10:13.144Z,101958.56
2022-12-18T11:11:14.963Z,101952.69
2022-12-18T11:12:16.756Z,101947.45
2022-12-18T11:13:18.548Z,101962.05
2022-12-18T11:14:20.267Z,101951.66
2022-12-18T11:15:22.139Z,101956.06
2022-12-18T11:16:24.121Z,101950.11
2022-12-18T11:17:26.851Z,101959.71
2022-12-18T11:18:28.998Z,101956.30
2022-12-18T11:19:30.833Z,101958.80
2022-12-18T11:20:32.660Z,101962.29
2022-12-18T11:21:34.465Z,101965.59
2022-12-18T11:22:36.410Z,101968.97
2022-12-18T11:23:38.196Z,101965.59
2022-12-18T11:24:40.078Z,101967.38
2022-12-18T11:25:41.868Z,101965.75
2022-12-18T11:26:43.748Z,101965.75
2022-12-18T11:27:45.573Z,101968.41
2022-12-18T11:28:47.383Z,101964.05
2022-12-18T11:29:49.210Z,101963.97
2022-12-18T11:30:51.172Z,101962.13
2022-12-18T11:31:52.952Z,101963.01
2022-12-18T11:32:54.749Z,101964.80
2022-12-18T11:34:26.784Z,101964.88
2022-12-18T11:35:00.138Z,101970.03
2022-12-18T11:36:01.916Z,101966.47
2022-12-18T11:37:03.740Z,101961.98
2022-12-18T11:38:05.628Z,101969.36
2022-12-18T11:39:08.707Z,101972.53
2022-12-18T11:40:11.214Z,101969.88
2022-12-18T11:41:13.018Z,101967.29
2022-12-18T11:42:14.840Z,101968.17
2022-12-18T11:43:16.659Z,101972.53
2022-12-18T11:44:18.465Z,101971.86
2022-12-18T11:45:21.719Z,101974.45
2022-12-18T11:46:23.662Z,101976.23
2022-12-18T11:47:25.525Z,101973.56